createdAt,value
2022-11-25T00:01:11.947Z,9.60
2022-11-25T00:03:39.757Z,8.30
2022-11-25T00:06:11.111Z,4.83
2022-11-25T00:08:38.660Z,6.93
2022-11-25T00:11:08.008Z,4.97
2022-11-25T00:13:35.886Z,7.47
2022-11-25T00:16:03.941Z,9.43
2022-11-25T00:18:31.692Z,6.73
2022-11-25T00:20:59.179Z,7.40
2022-11-25T00:23:31.911Z,9.53
2022-11-25T00:26:07.634Z,10.13
2022-11-25T00:28:35.050Z,5.90
2022-11-25T00:31:05.458Z,7.10
2022-11-25T00:33:32.859Z,9.20
2022-11-25T00:36:01.296Z,6.20
2022-11-25T00:38:28.704Z,8.33
2022-11-25T00:41:16.712Z,9.10
2022-11-25T00:44:03.072Z,12.20
2022-11-25T00:46:30.476Z,8.07
2022-11-25T00:48:57.857Z,9.33
2022-11-25T00:51:25.300Z,10.47
2022-11-25T00:53:58.612Z,8.37
2022-11-25T00:56:26.436Z,7.47
2022-11-25T00:58:55.228Z,11.97
2022-11-25T01:01:22.759Z,11.73
2022-11-25T01:03:50.557Z,9.50
2022-11-25T01:06:18.040Z,8.40
2022-11-25T01:08:46.686Z,8.73
2022-11-25T01:11:15.050Z,9.03
2022-11-25T01:13:43.924Z,9.50
2022-11-25T01:16:14.098Z,8.80
2022-11-25T01:18:41.522Z,5.77
2022-11-25T01:21:09.474Z,7.53
2022-11-25T01:23:36.902Z,6.83
2022-11-25T01:26:04.979Z,13.77
2022-11-25T01:28:32.661Z,16.50
2022-11-25T01:31:00.794Z,12.40
2022-11-25T01:33:29.601Z,9.23
2022-11-25T01:35:57.018Z,10.50
2022-11-25T01:38:24.423Z,9.10
2022-11-25T01:40:51.818Z,9.87
2022-11-25T01:43:19.226Z,9.97
2022-11-25T01:45:46.689Z,9.80
2022-11-25T01:48:17.859Z,11.63
2022-11-25T01:50:47.621Z,17.57
2022-11-25T01:53:16.301Z,17.50
2022-11-25T01:55:45.886Z,14.30
2022-11-25T01:58:15.534Z,15.20
2022-11-25T02:00:51.012Z,8.57
2022-11-25T02:03:20.062Z,14.27
2022-11-25T02:05:51.116Z,13.00
2022-11-25T02:08:20.064Z,9.60
2022-11-25T02:10:47.607Z,9.87
2022-11-25T02:13:15.094Z,13.57
2022-11-25T02:15:42.624Z,12.97
2022-11-25T02:18:10.168Z,13.07
2022-11-25T02:20:39.773Z,10.07
2022-11-25T02:23:12.528Z,14.40
2022-11-25T02:25:42.037Z,14.43
2022-11-25T02:28:11.119Z,5.07
2022-11-25T02:30:38.955Z,10.90
2022-11-25T02:33:06.845Z,7.53
2022-11-25T02:35:35.095Z,6.10
2022-11-25T02:38:06.066Z,7.63
2022-11-25T02:40:35.471Z,8.60
2022-11-25T02:43:04.284Z,9.03
2022-11-25T02:45:36.559Z,9.67
2022-11-25T02:48:04.075Z,11.77
2022-11-25T02:50:31.469Z,9.40
2022-11-25T02:52:58.870Z,14.07
2022-11-25T02:55:26.255Z,12.83
2022-11-25T02:57:53.663Z,12.37
2022-11-25T03:00:22.735Z,13.00
2022-11-25T03:02:53.120Z,12.00
2022-11-25T03:05:20.508Z,18.80
2022-11-25T03:07:47.983Z,17.17
2022-11-25T03:10:15.478Z,19.63
2022-11-25T03:12:42.879Z,17.53
2022-11-25T03:15:10.446Z,12.07
2022-11-25T03:17:39.211Z,18.07
2022-11-25T03:20:07.027Z,23.00
2022-11-25T03:22:34.906Z,17.20
2022-11-25T03:25:02.452Z,20.80
2022-11-25T03:27:30.442Z,14.00
2022-11-25T03:29:57.964Z,20.87
2022-11-25T03:32:25.375Z,21.80
2022-11-25T03:34:54.128Z,22.90
2022-11-25T03:37:21.644Z,21.87
2022-11-25T03:39:49.120Z,18.53
2022-11-25T03:42:16.528Z,18.17
2022-11-25T03:44:44.056Z,19.27
2022-11-25T03:47:11.545Z,20.20
2022-11-25T03:49:38.950Z,19.60
2022-11-25T03:52:08.637Z,18.77
2022-11-25T03:54:36.352Z,19.77
2022-11-25T03:57:03.969Z,23.60
2022-11-25T03:59:31.372Z,26.57
2022-11-25T04:01:58.813Z,20.60
2022-11-25T04:04:26.397Z,24.00
2022-11-25T04:06:53.869Z,18.97
2022-11-25T04:09:22.637Z,28.47
2022-11-25T04:12:07.622Z,21.17
2022-11-25T04:14:36.248Z,22.13
2022-11-25T04:17:04.115Z,29.70
2022-11-25T04:19:31.598Z,21.70
2022-11-25T04:21:59.738Z,17.00
2022-11-25T04:24:28.565Z,14.97
2022-11-25T04:26:55.955Z,15.07
2022-11-25T04:29:23.349Z,15.77
2022-11-25T04:31:50.771Z,18.47
2022-11-25T04:34:18.214Z,10.10
2022-11-25T04:36:45.617Z,9.00
2022-11-25T04:39:13.056Z,9.37
2022-11-25T04:41:41.834Z,10.73
2022-11-25T04:44:09.249Z,5.43
2022-11-25T04:46:38.935Z,12.07
2022-11-25T04:49:06.377Z,8.13
2022-11-25T04:51:33.785Z,6.90
2022-11-25T04:54:01.194Z,10.60
2022-11-25T04:56:28.666Z,9.73
2022-11-25T04:59:11.321Z,8.03
2022-11-25T05:01:38.768Z,10.03
2022-11-25T05:04:06.202Z,10.87
2022-11-25T05:06:33.605Z,9.77
2022-11-25T05:09:01.119Z,8.60
2022-11-25T05:11:28.530Z,11.83
2022-11-25T05:13:57.262Z,6.80
2022-11-25T05:16:24.726Z,8.17
2022-11-25T05:18:52.141Z,9.13
2022-11-25T05:21:19.517Z,7.10
2022-11-25T05:23:49.577Z,7.97
2022-11-25T05:26:19.575Z,8.40
2022-11-25T05:28:47.060Z,9.93
2022-11-25T05:31:15.851Z,7.17
2022-11-25T05:33:43.257Z,7.23
2022-11-25T05:36:10.867Z,10.57
2022-11-25T05:38:38.270Z,12.20
2022-11-25T05:41:07.589Z,9.50
2022-11-25T05:43:34.983Z,9.27
2022-11-25T05:46:05.363Z,13.20
2022-11-25T05:48:34.252Z,9.27
2022-11-25T05:51:01.956Z,14.07
2022-11-25T05:53:29.509Z,12.57
2022-11-25T05:55:57.501Z,10.73
2022-11-25T05:58:24.930Z,16.13
2022-11-25T06:00:52.378Z,9.80
2022-11-25T06:03:19.926Z,21.73
2022-11-25T06:05:48.735Z,12.73
2022-11-25T06:08:16.167Z,12.93
2022-11-25T06:10:43.618Z,14.70
2022-11-25T06:13:11.270Z,12.93
2022-11-25T06:15:41.475Z,14.47
2022-11-25T06:18:09.002Z,11.00
2022-11-25T06:20:36.391Z,16.57
2022-11-25T06:23:05.182Z,12.93
2022-11-25T06:25:32.852Z,13.43
2022-11-25T06:28:15.746Z,22.83
2022-11-25T06:30:43.164Z,21.80
2022-11-25T06:33:10.651Z,17.17
2022-11-25T06:35:38.138Z,16.93
2022-11-25T06:38:07.955Z,19.67
2022-11-25T06:40:35.363Z,18.17
2022-11-25T06:43:02.736Z,18.23
2022-11-25T06:45:30.373Z,22.70
2022-11-25T06:47:58.044Z,18.60
2022-11-25T06:50:25.483Z,21.37
2022-11-25T06:52:52.877Z,19.93
2022-11-25T06:55:21.624Z,13.53
2022-11-25T06:57:49.010Z,16.80
2022-11-25T07:00:16.762Z,18.77
2022-11-25T07:02:48.355Z,22.30
2022-11-25T07:05:17.371Z,23.57
2022-11-25T07:07:44.909Z,19.00
2022-11-25T07:10:13.515Z,19.47
2022-11-25T07:12:42.290Z,18.80
2022-11-25T07:15:09.984Z,22.30
2022-11-25T07:17:37.392Z,19.93
2022-11-25T07:20:05.137Z,21.43
2022-11-25T07:22:32.526Z,16.63
2022-11-25T07:24:59.906Z,24.07
2022-11-25T07:27:27.637Z,14.37
2022-11-25T07:30:41.161Z,14.90
2022-11-25T07:32:43.708Z,19.97
2022-11-25T07:35:11.214Z,14.37
2022-11-25T07:37:38.653Z,14.63
2022-11-25T07:40:07.943Z,16.27
2022-11-25T07:42:35.352Z,15.63
2022-11-25T07:45:04.380Z,18.37
2022-11-25T07:47:35.492Z,16.43
2022-11-25T07:50:02.883Z,13.37
2022-11-25T07:52:30.300Z,18.23
2022-11-25T07:54:57.736Z,21.40
2022-11-25T07:57:25.160Z,16.93
2022-11-25T07:59:52.585Z,21.47
2022-11-25T08:02:21.396Z,19.53
2022-11-25T08:04:48.827Z,17.37
2022-11-25T08:07:16.292Z,22.13
2022-11-25T08:09:43.732Z,20.10
2022-11-25T08:12:11.138Z,20.97
2022-11-25T08:14:38.766Z,23.00
2022-11-25T08:17:06.198Z,15.70
2022-11-25T08:19:35.975Z,19.70
2022-11-25T08:22:03.555Z,19.20
2022-11-25T08:24:30.960Z,13.43
2022-11-25T08:27:01.322Z,17.30
2022-11-25T08:29:28.796Z,17.43
2022-11-25T08:31:56.215Z,16.47
2022-11-25T08:34:24.660Z,20.00
2022-11-25T08:36:53.490Z,13.93
2022-11-25T08:39:51.232Z,15.23
2022-11-25T08:42:09.522Z,15.53
2022-11-25T08:44:36.912Z,17.07
2022-11-25T08:47:04.333Z,15.43
2022-11-25T08:49:36.042Z,16.20
2022-11-25T08:52:09.487Z,14.03
2022-11-25T08:54:36.922Z,18.50
2022-11-25T08:57:04.624Z,11.30
2022-11-25T08:59:32.010Z,14.63
2022-11-25T09:01:59.609Z,16.70
2022-11-25T09:04:27.121Z,17.63
2022-11-25T09:06:54.571Z,8.43
2022-11-25T09:09:23.306Z,18.97
2022-11-25T09:11:50.746Z,13.90
2022-11-25T09:14:18.236Z,11.30
2022-11-25T09:16:46.032Z,10.17
2022-11-25T09:19:13.434Z,15.50
2022-11-25T09:21:40.862Z,15.07
2022-11-25T09:24:08.336Z,14.63
2022-11-25T09:26:39.585Z,11.80
2022-11-25T09:29:06.978Z,9.60
2022-11-25T09:31:34.554Z,9.63
2022-11-25T09:34:01.994Z,7.87
2022-11-25T09:36:29.365Z,10.40
2022-11-25T09:38:56.782Z,8.33
2022-11-25T09:41:49.329Z,12.40
2022-11-25T09:44:41.292Z,8.13
2022-11-25T09:47:11.130Z,10.07
2022-11-25T09:49:44.584Z,15.77
2022-11-25T09:52:14.323Z,11.63
2022-11-25T09:54:43.306Z,6.70
2022-11-25T09:57:19.924Z,9.23
2022-11-25T09:59:53.178Z,13.00
2022-11-25T10:02:23.829Z,12.63
2022-11-25T10:04:54.652Z,6.23
2022-11-25T10:07:26.093Z,9.70
2022-11-25T10:09:53.961Z,7.40
2022-11-25T10:12:25.917Z,7.37
2022-11-25T10:14:56.496Z,6.60
2022-11-25T10:17:31.944Z,9.20
2022-11-25T10:20:01.758Z,10.80
2022-11-25T10:22:31.048Z,7.87
2022-11-25T10:24:59.534Z,5.80
2022-11-25T10:27:29.499Z,8.90
2022-11-25T10:30:02.415Z,11.30
2022-11-25T10:32:33.171Z,6.67
2022-11-25T10:35:02.466Z,11.10
2022-11-25T10:37:31.624Z,5.23
2022-11-25T10:39:59.022Z,8.53
2022-11-25T10:42:28.466Z,9.57
2022-11-25T10:44:56.199Z,6.77
2022-11-25T10:47:33.635Z,6.77
2022-11-25T10:50:04.737Z,10.57
2022-11-25T10:52:35.263Z,9.63
2022-11-25T10:55:09.510Z,9.03
2022-11-25T10:57:37.068Z,8.37
2022-11-25T11:00:05.845Z,5.80
2022-11-25T11:02:39.976Z,6.90
2022-11-25T11:05:18.662Z,5.40
2022-11-25T11:07:47.218Z,13.27
2022-11-25T11:10:17.501Z,7.87
2022-11-25T11:12:58.378Z,5.23
2022-11-25T11:15:26.976Z,8.80
2022-11-25T11:17:56.933Z,5.77
2022-11-25T11:20:25.458Z,7.00
2022-11-25T11:22:56.805Z,11.77
2022-11-25T11:25:29.968Z,10.07
2022-11-25T11:27:57.563Z,8.20
2022-11-25T11:30:26.618Z,8.23
2022-11-25T11:33:00.438Z,9.30
2022-11-25T11:35:31.425Z,8.53
2022-11-25T11:38:01.951Z,7.80
2022-11-25T11:40:32.966Z,10.13
2022-11-25T11:43:06.998Z,9.60
2022-11-25T11:45:38.884Z,8.97
2022-11-25T11:48:13.041Z,6.20
2022-11-25T11:50:41.757Z,10.97
2022-11-25T11:53:15.306Z,10.60
2022-11-25T11:56:05.543Z,9.40
2022-11-25T11:58:40.235Z,6.87
2022-11-25T12:01:12.384Z,7.77
2022-11-25T12:03:42.958Z,9.67
2022-11-25T12:06:11.489Z,7.13
2022-11-25T12:08:45.016Z,10.33
2022-11-25T12:11:14.604Z,7.40
2022-11-25T12:13:44.262Z,10.37
2022-11-25T12:16:13.208Z,9.60
2022-11-25T12:18:45.885Z,10.90
2022-11-25T12:21:19.922Z,10.70
2022-11-25T12:23:52.980Z,14.53
2022-11-25T12:26:23.171Z,8.43
2022-11-25T12:28:53.784Z,7.37
2022-11-25T12:31:23.459Z,12.63
2022-11-25T12:33:57.647Z,11.87
2022-11-25T12:36:29.921Z,6.67
2022-11-25T12:39:00.621Z,5.13
2022-11-25T12:41:30.785Z,9.40
2022-11-25T12:44:01.466Z,9.33
2022-11-25T12:46:32.860Z,7.23
2022-11-25T12:49:02.291Z,8.80
2022-11-25T12:51:40.725Z,11.97
2022-11-25T12:54:17.085Z,8.90
2022-11-25T12:56:51.571Z,7.97
2022-11-25T12:59:34.827Z,11.17
2022-11-25T13:02:15.047Z,19.60
2022-11-25T13:05:13.080Z,19.67
2022-11-25T13:07:54.432Z,11.70
2022-11-25T13:10:32.788Z,9.27
2022-11-25T13:13:18.551Z,8.40
2022-11-25T13:15:47.461Z,11.40
2022-11-25T13:18:17.045Z,7.37
2022-11-25T13:20:50.754Z,9.00
2022-11-25T13:23:25.489Z,7.60
2022-11-25T13:25:53.814Z,10.93
2022-11-25T13:28:31.741Z,5.70
2022-11-25T13:31:14.092Z,8.50
2022-11-25T13:34:00.387Z,8.30
2022-11-25T13:36:44.434Z,10.93
2022-11-25T13:39:15.359Z,9.57
2022-11-25T13:41:57.649Z,11.03
2022-11-25T13:44:28.320Z,6.57
2022-11-25T13:46:58.286Z,10.73
2022-11-25T13:49:28.039Z,8.07
2022-11-25T13:51:57.579Z,13.50
2022-11-25T13:54:27.125Z,8.13
2022-11-25T13:57:13.255Z,8.67
2022-11-25T13:59:49.456Z,7.37
2022-11-25T14:02:31.409Z,12.73
2022-11-25T14:05:01.318Z,9.23
2022-11-25T14:07:34.572Z,7.90
2022-11-25T14:10:08.739Z,8.33
2022-11-25T14:12:43.011Z,10.73
2022-11-25T14:15:25.902Z,10.73
2022-11-25T14:18:05.112Z,12.20
2022-11-25T14:20:37.192Z,11.77
2022-11-25T14:23:22.096Z,8.80
2022-11-25T14:25:51.852Z,8.50
2022-11-25T14:28:24.817Z,10.73
2022-11-25T14:30:54.195Z,10.60
2022-11-25T14:33:24.920Z,8.87
2022-11-25T14:35:53.558Z,11.07
2022-11-25T14:38:24.402Z,9.27
2022-11-25T14:40:54.960Z,8.43
2022-11-25T14:43:24.023Z,8.20
2022-11-25T14:46:09.685Z,12.23
2022-11-25T14:48:37.457Z,9.77
2022-11-25T14:51:06.998Z,10.93
2022-11-25T14:53:45.917Z,12.33
2022-11-25T14:56:15.782Z,10.10
2022-11-25T14:58:46.861Z,10.37
2022-11-25T15:01:18.790Z,10.57
2022-11-25T15:03:47.336Z,9.50
2022-11-25T15:06:15.441Z,7.73
2022-11-25T15:08:44.877Z,8.30
2022-11-25T15:11:14.647Z,9.63
2022-11-25T15:13:43.789Z,12.40
2022-11-25T15:16:13.325Z,11.47
2022-11-25T15:18:48.502Z,6.70
2022-11-25T15:21:16.965Z,9.17
2022-11-25T15:23:45.833Z,10.27
2022-11-25T15:26:17.663Z,10.77
2022-11-25T15:28:45.090Z,9.90
2022-11-25T15:31:16.853Z,10.03
2022-11-25T15:33:44.591Z,8.70
2022-11-25T15:36:12.006Z,8.00
2022-11-25T15:38:42.036Z,7.10
2022-11-25T15:41:18.982Z,8.27
2022-11-25T15:43:47.817Z,7.93
2022-11-25T15:46:15.810Z,8.70
2022-11-25T15:48:46.284Z,6.63
2022-11-25T15:51:27.837Z,7.87
2022-11-25T15:53:57.251Z,10.20
2022-11-25T15:56:28.158Z,14.30
2022-11-25T15:59:00.277Z,9.60
2022-11-25T16:01:30.257Z,11.27
2022-11-25T16:04:10.722Z,13.37
2022-11-25T16:06:38.184Z,10.67
2022-11-25T16:09:18.678Z,12.37
2022-11-25T16:11:47.625Z,11.30
2022-11-25T16:14:18.809Z,11.00
2022-11-25T16:16:47.184Z,10.57
2022-11-25T16:19:17.491Z,10.80
2022-11-25T16:21:52.615Z,13.47
2022-11-25T16:24:33.519Z,14.53
2022-11-25T16:27:03.727Z,14.47
2022-11-25T16:29:32.576Z,14.77
2022-11-25T16:32:00.537Z,18.87
2022-11-25T16:34:28.495Z,16.10
2022-11-25T16:36:55.925Z,13.20
2022-11-25T16:39:23.349Z,12.90
2022-11-25T16:41:56.435Z,11.23
2022-11-25T16:44:25.961Z,14.47
2022-11-25T16:46:53.595Z,15.63
2022-11-25T16:49:21.959Z,13.90
2022-11-25T16:51:50.811Z,13.47
2022-11-25T16:54:19.261Z,13.77
2022-11-25T16:56:48.110Z,12.40
2022-11-25T16:59:17.587Z,12.93
2022-11-25T17:01:46.507Z,16.53
2022-11-25T17:04:14.534Z,17.00
2022-11-25T17:06:43.122Z,13.20
2022-11-25T17:09:10.866Z,14.23
2022-11-25T17:11:46.102Z,12.27
2022-11-25T17:14:17.100Z,14.30
2022-11-25T17:16:45.903Z,16.77
2022-11-25T17:19:15.418Z,12.40
2022-11-25T17:21:43.019Z,15.13
2022-11-25T17:24:15.324Z,18.23
2022-11-25T17:26:43.305Z,14.80
2022-11-25T17:29:14.125Z,16.40
2022-11-25T17:31:41.868Z,18.07
2022-11-25T17:34:12.157Z,16.97
2022-11-25T17:36:39.689Z,14.67
2022-11-25T17:39:07.104Z,21.23
2022-11-25T17:41:39.808Z,15.83
2022-11-25T17:44:07.598Z,18.67
2022-11-25T17:46:34.990Z,19.73
2022-11-25T17:49:02.389Z,19.37
2022-11-25T17:51:31.175Z,23.50
2022-11-25T17:53:58.565Z,19.73
2022-11-25T17:56:27.942Z,18.57
2022-11-25T17:58:55.735Z,22.20
2022-11-25T18:01:23.298Z,20.20
2022-11-25T18:03:52.945Z,24.83
2022-11-25T18:06:20.410Z,22.20
2022-11-25T18:08:49.174Z,21.97
2022-11-25T18:11:19.576Z,22.67
2022-11-25T18:13:47.965Z,18.97
2022-11-25T18:16:16.189Z,22.47
2022-11-25T18:18:43.655Z,21.43
2022-11-25T18:21:12.553Z,23.97
2022-11-25T18:23:39.946Z,23.60
2022-11-25T18:26:11.463Z,21.97
2022-11-25T18:28:38.988Z,28.20
2022-11-25T18:31:07.121Z,26.33
2022-11-25T18:33:35.797Z,20.67
2022-11-25T18:36:03.217Z,23.53
2022-11-25T18:38:30.631Z,19.67
2022-11-25T18:40:58.121Z,23.60
2022-11-25T18:43:27.501Z,25.97
2022-11-25T18:45:55.648Z,22.80
2022-11-25T18:48:24.355Z,22.50
2022-11-25T18:50:52.797Z,22.63
2022-11-25T18:53:20.205Z,26.47
2022-11-25T18:55:48.691Z,24.43
2022-11-25T18:58:16.749Z,27.17
2022-11-25T19:00:48.367Z,22.87
2022-11-25T19:03:18.009Z,28.07
2022-11-25T19:05:45.437Z,23.20
2022-11-25T19:08:12.829Z,28.63
2022-11-25T19:10:41.479Z,25.90
2022-11-25T19:13:10.579Z,25.73
2022-11-25T19:15:38.087Z,26.67
2022-11-25T19:18:07.590Z,23.77
2022-11-25T19:20:35.011Z,21.17
2022-11-25T19:23:03.763Z,23.20
2022-11-25T19:25:31.145Z,22.90
2022-11-25T19:27:59.621Z,25.03
2022-11-25T19:30:28.600Z,23.90
2022-11-25T19:32:57.793Z,29.60
2022-11-25T19:35:27.966Z,26.17
2022-11-25T19:37:55.346Z,25.13
2022-11-25T19:40:25.053Z,26.07
2022-11-25T19:42:52.487Z,27.43
2022-11-25T19:45:21.199Z,28.70
2022-11-25T19:47:49.488Z,27.30
2022-11-25T19:50:19.698Z,27.33
2022-11-25T19:52:49.752Z,27.93
2022-11-25T19:55:18.327Z,24.67
2022-11-25T19:57:45.846Z,28.53
2022-11-25T20:00:13.935Z,28.60
2022-11-25T20:02:41.679Z,27.10
2022-11-25T20:05:10.002Z,25.77
2022-11-25T20:07:37.526Z,27.07
2022-11-25T20:10:16.017Z,27.70
2022-11-25T20:12:43.442Z,28.33
2022-11-25T20:15:11.720Z,30.27
2022-11-25T20:17:40.093Z,29.27
2022-11-25T20:20:10.279Z,29.50
2022-11-25T20:22:38.671Z,28.70
2022-11-25T20:25:07.922Z,30.70
2022-11-25T20:27:36.688Z,27.90
2022-11-25T20:30:04.278Z,28.03
2022-11-25T20:32:34.019Z,31.40
2022-11-25T20:35:01.599Z,31.27
2022-11-25T20:37:40.219Z,30.83
2022-11-25T20:40:14.423Z,32.00
2022-11-25T20:42:43.160Z,32.27
2022-11-25T20:45:14.114Z,36.93
2022-11-25T20:47:41.542Z,26.17
2022-11-25T20:50:10.741Z,29.90
2022-11-25T20:52:38.938Z,28.27
2022-11-25T20:55:11.551Z,25.13
2022-11-25T20:57:39.017Z,29.80
2022-11-25T21:00:10.588Z,29.20
2022-11-25T21:02:38.083Z,31.07
2022-11-25T21:05:05.890Z,32.97
2022-11-25T21:07:33.609Z,25.37
2022-11-25T21:10:01.180Z,29.70
2022-11-25T21:12:28.583Z,27.37
2022-11-25T21:14:56.041Z,31.30
2022-11-25T21:17:24.796Z,29.17
2022-11-25T21:19:52.199Z,30.17
2022-11-25T21:22:21.070Z,29.40
2022-11-25T21:24:48.550Z,33.47
2022-11-25T21:27:16.565Z,29.20
2022-11-25T21:29:44.517Z,29.33
2022-11-25T21:32:19.657Z,27.57
2022-11-25T21:34:48.535Z,35.03
2022-11-25T21:37:16.841Z,32.17
2022-11-25T21:39:44.320Z,33.43
2022-11-25T21:42:15.816Z,31.07
2022-11-25T21:44:43.597Z,30.00
2022-11-25T21:47:13.641Z,29.50
2022-11-25T21:49:41.055Z,31.17
2022-11-25T21:52:09.837Z,38.67
2022-11-25T21:54:37.459Z,29.90
2022-11-25T21:57:05.167Z,28.23
2022-11-25T21:59:32.838Z,27.20
2022-11-25T22:02:00.239Z,29.30
2022-11-25T22:04:27.621Z,35.50
2022-11-25T22:06:55.087Z,30.50
2022-11-25T22:09:23.886Z,29.03
2022-11-25T22:11:52.991Z,30.90
2022-11-25T22:14:27.479Z,29.83
2022-11-25T22:16:55.945Z,29.00
2022-11-25T22:19:24.612Z,31.70
2022-11-25T22:21:52.092Z,35.10
2022-11-25T22:24:20.309Z,31.50
2022-11-25T22:26:54.657Z,32.57
2022-11-25T22:29:29.130Z,30.63
2022-11-25T22:31:56.587Z,33.50
2022-11-25T22:34:24.382Z,31.90
2022-11-25T22:36:52.316Z,32.40
2022-11-25T22:39:20.679Z,31.80
2022-11-25T22:41:51.419Z,38.93
2022-11-25T22:44:21.577Z,35.23
2022-11-25T22:46:49.844Z,34.23
2022-11-25T22:49:31.344Z,33.50
2022-11-25T22:51:59.865Z,33.93
2022-11-25T22:54:27.269Z,29.10
2022-11-25T22:56:56.630Z,33.33
2022-11-25T22:59:24.008Z,31.13
2022-11-25T23:01:51.495Z,29.13
2022-11-25T23:04:19.559Z,28.63
2022-11-25T23:06:47.218Z,30.80
2022-11-25T23:09:15.728Z,30.23
2022-11-25T23:11:43.411Z,30.93
2022-11-25T23:14:12.410Z,27.70
2022-11-25T23:16:40.572Z,29.27
2022-11-25T23:19:12.759Z,40.03
2022-11-25T23:21:40.446Z,35.00
2022-11-25T23:24:11.820Z,27.50
2022-11-25T23:26:39.194Z,30.73
2022-11-25T23:29:06.782Z,26.77
2022-11-25T23:31:36.330Z,30.10
2022-11-25T23:34:04.975Z,33.43
2022-11-25T23:36:39.078Z,29.10
2022-11-25T23:39:06.630Z,30.70
2022-11-25T23:41:35.029Z,23.07
2022-11-25T23:44:03.483Z,29.50
2022-11-25T23:46:34.830Z,29.43
2022-11-25T23:49:04.454Z,29.97
2022-11-25T23:51:32.288Z,29.80
2022-11-25T23:53:59.882Z,27.60
2022-11-25T23:56:27.955Z,26.37
2022-11-25T23:58:55.395Z,26.60
